createdAt,value
2019-04-21T00:02:24.203Z,11.96
2019-04-21T00:05:10.853Z,12.05
2019-04-21T00:07:38.604Z,12.05
2019-04-21T00:10:12.083Z,12.05
2019-04-21T00:12:34.458Z,12.00
2019-04-21T00:15:02.131Z,11.94
2019-04-21T00:17:23.112Z,11.82
2019-04-21T00:20:09.149Z,11.82
2019-04-21T00:22:41.678Z,11.83
2019-04-21T00:25:13.906Z,11.85
2019-04-21T00:27:48.393Z,11.85
2019-04-21T00:30:21.382Z,11.72
2019-04-21T00:32:41.900Z,11.72
2019-04-21T00:35:07.599Z,11.65
2019-04-21T00:37:50.598Z,11.39
2019-04-21T00:40:22.806Z,11.57
2019-04-21T00:42:48.861Z,11.62
2019-04-21T00:45:16.230Z,11.50
2019-04-21T00:47:53.138Z,11.46
2019-04-21T00:50:25.569Z,11.40
2019-04-21T00:53:00.852Z,11.32
2019-04-21T00:58:10.654Z,11.25
2019-04-21T01:00:43.020Z,11.36
2019-04-21T01:03:11.019Z,11.21
2019-04-21T01:05:46.981Z,11.19
2019-04-21T01:08:11.466Z,11.10
2019-04-21T01:10:33.600Z,11.09
2019-04-21T01:13:20.393Z,11.11
2019-04-21T01:15:46.114Z,11.20
2019-04-21T01:18:09.234Z,11.20
2019-04-21T01:20:20.755Z,11.20
2019-04-21T01:22:49.173Z,11.05
2019-04-21T01:25:27.469Z,11.18
2019-04-21T01:28:03.789Z,11.20
2019-04-21T01:30:41.037Z,11.15
2019-04-21T01:33:20.096Z,11.01
2019-04-21T01:35:39.700Z,10.88
2019-04-21T01:38:16.681Z,10.79
2019-04-21T01:40:41.131Z,10.65
2019-04-21T01:43:08.003Z,10.66
2019-04-21T01:45:37.676Z,10.67
2019-04-21T01:48:05.708Z,10.50
2019-04-21T01:50:41.181Z,10.74
2019-04-21T01:53:24.864Z,10.61
2019-04-21T01:55:54.180Z,10.67
2019-04-21T01:58:19.741Z,10.49
2019-04-21T02:00:53.779Z,10.52
2019-04-21T02:03:46.651Z,10.46
2019-04-21T02:06:04.805Z,10.41
2019-04-21T02:08:27.176Z,10.36
2019-04-21T02:10:59.961Z,10.28
2019-04-21T02:13:23.136Z,10.40
2019-04-21T02:16:02.081Z,10.17
2019-04-21T02:18:27.989Z,10.41
2019-04-21T02:20:47.596Z,10.41
2019-04-21T02:23:34.671Z,10.40
2019-04-21T02:26:00.036Z,10.35
2019-04-21T02:28:36.737Z,10.21
2019-04-21T02:31:18.096Z,10.20
2019-04-21T02:33:50.778Z,10.10
2019-04-21T02:36:23.305Z,10.13
2019-04-21T02:38:48.774Z,9.94
2019-04-21T02:41:06.043Z,10.10
2019-04-21T02:43:50.176Z,10.26
2019-04-21T02:46:12.856Z,10.06
2019-04-21T02:48:51.475Z,10.09
2019-04-21T02:51:17.382Z,10.06
2019-04-21T02:56:18.877Z,10.04
2019-04-21T02:59:02.378Z,10.04
2019-04-21T03:04:04.933Z,9.84
2019-04-21T03:06:59.823Z,9.74
2019-04-21T03:09:24.316Z,9.78
2019-04-21T03:11:57.250Z,9.73
2019-04-21T03:14:33.298Z,9.60
2019-04-21T03:16:42.975Z,9.70
2019-04-21T03:19:28.922Z,9.65
2019-04-21T03:21:57.409Z,9.48
2019-04-21T03:24:18.458Z,9.57
2019-04-21T03:27:01.410Z,9.51
2019-04-21T03:29:34.898Z,9.54
2019-04-21T03:34:51.351Z,9.53
2019-04-21T03:39:29.514Z,9.59
2019-04-21T03:42:01.886Z,9.54
2019-04-21T03:44:22.874Z,9.61
2019-04-21T03:49:28.097Z,9.59
2019-04-21T03:52:00.340Z,9.64
2019-04-21T03:59:19.861Z,9.24
2019-04-21T04:02:23.073Z,9.17
2019-04-21T04:04:44.089Z,9.31
2019-04-21T04:07:44.657Z,9.30
2019-04-21T04:10:08.043Z,9.31
2019-04-21T04:15:20.520Z,9.34
2019-04-21T04:20:26.185Z,9.16
2019-04-21T04:25:04.974Z,9.29
2019-04-21T04:32:34.697Z,9.31
2019-04-21T04:35:21.551Z,9.47
2019-04-21T04:37:40.580Z,9.58
2019-04-21T04:40:13.902Z,9.68
2019-04-21T04:45:24.090Z,9.79
2019-04-21T04:47:49.984Z,9.87
2019-04-21T04:50:27.722Z,10.02
2019-04-21T04:52:49.018Z,9.95
2019-04-21T04:55:20.909Z,10.17
2019-04-21T05:00:25.742Z,10.27
2019-04-21T05:02:48.869Z,10.34
2019-04-21T05:08:07.974Z,10.17
2019-04-21T05:10:29.555Z,10.22
2019-04-21T05:12:51.028Z,10.30
2019-04-21T05:22:44.741Z,10.51
2019-04-21T05:25:10.370Z,10.40
2019-04-21T05:27:44.402Z,10.53
2019-04-21T05:30:30.670Z,10.43
2019-04-21T05:33:12.460Z,10.73
2019-04-21T05:35:42.537Z,11.05
2019-04-21T05:38:10.418Z,10.70
2019-04-21T05:40:37.304Z,10.92
2019-04-21T05:43:17.699Z,10.65
2019-04-21T05:45:47.640Z,11.01
2019-04-21T05:50:46.276Z,11.48
2019-04-21T05:53:26.749Z,11.41
2019-04-21T05:55:51.429Z,11.26
2019-04-21T05:58:14.597Z,11.01
2019-04-21T06:03:32.326Z,11.55
2019-04-21T06:06:10.476Z,11.87
2019-04-21T06:08:31.442Z,11.93
2019-04-21T06:11:04.836Z,11.97
2019-04-21T06:13:34.813Z,12.07
2019-04-21T06:16:05.803Z,12.37
2019-04-21T06:20:59.778Z,12.49
2019-04-21T06:23:32.748Z,11.88
2019-04-21T06:28:38.025Z,11.68
2019-04-21T06:31:18.090Z,11.88
2019-04-21T06:33:36.091Z,11.84
2019-04-21T06:36:31.810Z,11.90
2019-04-21T06:41:23.364Z,12.28
2019-04-21T06:43:58.370Z,12.38
2019-04-21T06:46:26.340Z,12.38
2019-04-21T06:48:49.706Z,12.50
2019-04-21T06:51:22.447Z,12.67
2019-04-21T06:53:52.397Z,12.34
2019-04-21T06:56:25.231Z,12.65
2019-04-21T06:58:50.440Z,12.88
2019-04-21T07:01:26.533Z,12.92
2019-04-21T07:04:03.087Z,12.92
2019-04-21T07:06:23.443Z,13.03
2019-04-21T07:09:06.357Z,13.03
2019-04-21T07:11:18.959Z,12.93
2019-04-21T07:14:01.790Z,13.17
2019-04-21T07:16:25.449Z,13.39
2019-04-21T07:19:04.066Z,13.52
2019-04-21T07:21:21.924Z,13.68
2019-04-21T07:23:53.884Z,13.70
2019-04-21T07:26:25.496Z,13.86
2019-04-21T07:28:56.426Z,13.87
2019-04-21T07:31:25.376Z,13.99
2019-04-21T07:36:36.421Z,14.36
2019-04-21T07:38:50.418Z,14.36
2019-04-21T07:41:16.010Z,14.28
2019-04-21T07:43:57.210Z,14.29
2019-04-21T07:46:25.618Z,14.49
2019-04-21T07:49:12.786Z,14.56
2019-04-21T07:51:50.919Z,14.56
2019-04-21T07:54:25.146Z,14.76
2019-04-21T07:56:33.265Z,14.81
2019-04-21T07:59:23.850Z,14.93
2019-04-21T08:01:50.412Z,15.04
2019-04-21T08:04:37.850Z,15.18
2019-04-21T08:06:46.574Z,15.28
2019-04-21T08:09:19.730Z,15.29
2019-04-21T08:11:44.292Z,15.60
2019-04-21T08:14:17.797Z,15.74
2019-04-21T08:16:55.566Z,15.73
2019-04-21T08:19:18.708Z,15.67
2019-04-21T08:24:24.186Z,15.98
2019-04-21T08:26:51.446Z,16.04
2019-04-21T08:29:25.697Z,16.02
2019-04-21T08:31:56.192Z,16.04
2019-04-21T08:34:21.698Z,15.95
2019-04-21T08:36:55.313Z,16.13
2019-04-21T08:39:19.610Z,16.31
2019-04-21T08:41:51.114Z,16.35
2019-04-21T08:44:26.247Z,16.42
2019-04-21T08:46:52.803Z,16.59
2019-04-21T08:49:23.421Z,16.37
2019-04-21T08:51:57.781Z,16.47
2019-04-21T08:54:22.033Z,16.79
2019-04-21T08:56:59.414Z,17.00
2019-04-21T08:59:31.332Z,17.04
2019-04-21T09:02:02.988Z,16.92
2019-04-21T09:04:36.010Z,17.27
2019-04-21T09:09:38.190Z,17.15
2019-04-21T09:12:04.785Z,17.24
2019-04-21T09:14:36.556Z,17.16
2019-04-21T09:17:00.372Z,17.32
2019-04-21T09:19:44.575Z,17.47
2019-04-21T09:22:05.837Z,17.50
2019-04-21T09:24:33.012Z,17.66
2019-04-21T09:27:06.940Z,17.63
2019-04-21T09:29:26.458Z,17.49
2019-04-21T09:31:49.447Z,17.77
2019-04-21T09:34:27.181Z,17.70
2019-04-21T09:36:51.591Z,17.80
2019-04-21T09:39:20.741Z,17.87
2019-04-21T09:41:51.208Z,18.04
2019-04-21T09:44:25.547Z,17.97
2019-04-21T09:46:54.024Z,18.15
2019-04-21T09:49:23.507Z,18.06
2019-04-21T09:51:48.956Z,17.99
2019-04-21T09:54:23.184Z,18.12
2019-04-21T09:56:55.996Z,18.32
2019-04-21T09:59:26.192Z,18.25
2019-04-21T10:02:00.210Z,18.41
2019-04-21T10:04:18.923Z,18.46
2019-04-21T10:06:47.660Z,18.59
2019-04-21T10:09:19.445Z,18.40
2019-04-21T10:11:46.367Z,18.23
2019-04-21T10:14:14.831Z,18.22
2019-04-21T10:16:47.616Z,18.33
2019-04-21T10:19:17.424Z,18.37
2019-04-21T10:21:46.578Z,18.62
2019-04-21T10:24:16.216Z,18.45
2019-04-21T10:26:45.165Z,18.39
2019-04-21T10:29:21.529Z,18.49
2019-04-21T10:31:44.870Z,18.48
2019-04-21T10:34:13.576Z,18.58
2019-04-21T10:36:42.980Z,18.69
2019-04-21T10:39:11.628Z,18.56
2019-04-21T10:41:41.387Z,18.66
2019-04-21T10:44:11.441Z,18.78
2019-04-21T10:46:40.595Z,18.68
2019-04-21T10:49:10.430Z,18.71
2019-04-21T10:51:39.391Z,18.72
2019-04-21T10:54:08.239Z,18.68
2019-04-21T10:56:41.735Z,18.66
2019-04-21T10:59:08.006Z,18.65
2019-04-21T11:01:36.930Z,18.81
2019-04-21T11:04:17.254Z,18.92
2019-04-21T11:06:40.618Z,19.09
2019-04-21T11:09:10.744Z,19.11
2019-04-21T11:11:39.748Z,19.14
2019-04-21T11:14:08.717Z,18.92
2019-04-21T11:16:37.339Z,19.01
2019-04-21T11:19:06.375Z,19.33
2019-04-21T11:21:34.955Z,19.12
2019-04-21T11:24:03.945Z,19.10
2019-04-21T11:26:33.716Z,19.01
2019-04-21T11:29:03.183Z,18.98
2019-04-21T11:31:31.657Z,18.89
2019-04-21T11:34:00.906Z,19.14
2019-04-21T11:36:29.572Z,19.24
2019-04-21T11:39:16.825Z,18.96
2019-04-21T11:41:33.962Z,19.01
2019-04-21T11:44:03.443Z,18.91
2019-04-21T11:46:34.140Z,19.08
2019-04-21T11:49:04.030Z,19.04
2019-04-21T11:51:33.327Z,19.05
2019-04-21T11:54:01.823Z,19.14
2019-04-21T11:56:30.568Z,19.02
2019-04-21T11:58:59.678Z,19.17
2019-04-21T12:01:29.629Z,19.19
2019-04-21T12:03:58.189Z,19.45
2019-04-21T12:06:33.501Z,19.37
2019-04-21T12:08:59.866Z,19.39
2019-04-21T12:11:27.285Z,19.42
2019-04-21T12:13:56.294Z,19.47
2019-04-21T12:16:25.198Z,19.37
2019-04-21T12:18:54.649Z,19.38
2019-04-21T12:21:23.511Z,19.50
2019-04-21T12:23:52.370Z,19.55
2019-04-21T12:26:22.150Z,19.65
2019-04-21T12:28:51.924Z,19.68
2019-04-21T12:31:23.445Z,19.74
2019-04-21T12:33:54.041Z,19.70
2019-04-21T12:36:24.056Z,19.67
2019-04-21T12:38:59.663Z,19.62
2019-04-21T12:41:26.672Z,19.89
2019-04-21T12:43:55.277Z,19.73
2019-04-21T12:46:23.745Z,19.85
2019-04-21T12:48:52.198Z,19.85
2019-04-21T12:51:21.905Z,19.96
2019-04-21T12:53:51.789Z,19.85
2019-04-21T12:56:20.352Z,19.91
2019-04-21T12:58:49.053Z,19.98
2019-04-21T13:01:18.835Z,19.92
2019-04-21T13:03:47.954Z,20.04
2019-04-21T13:06:16.539Z,20.09
2019-04-21T13:08:53.594Z,19.93
2019-04-21T13:11:15.170Z,19.84
2019-04-21T13:13:43.930Z,19.88
2019-04-21T13:16:13.678Z,19.85
2019-04-21T13:18:42.319Z,19.75
2019-04-21T13:21:11.930Z,19.81
2019-04-21T13:23:41.147Z,20.22
2019-04-21T13:26:11.289Z,20.11
2019-04-21T13:28:40.441Z,20.10
2019-04-21T13:31:09.095Z,20.18
2019-04-21T13:33:37.816Z,20.29
2019-04-21T13:36:07.677Z,20.30
2019-04-21T13:38:43.150Z,20.58
2019-04-21T13:41:27.195Z,20.40
2019-04-21T13:43:43.347Z,20.43
2019-04-21T13:46:12.151Z,20.42
2019-04-21T13:48:42.369Z,20.35
2019-04-21T13:51:11.256Z,20.35
2019-04-21T13:53:40.000Z,20.32
2019-04-21T13:56:08.914Z,20.46
2019-04-21T13:58:38.005Z,20.52
2019-04-21T14:01:07.707Z,20.44
2019-04-21T14:03:37.585Z,20.59
2019-04-21T14:06:06.635Z,20.72
2019-04-21T14:08:36.856Z,20.65
2019-04-21T14:11:05.471Z,20.55
2019-04-21T14:13:34.232Z,20.63
2019-04-21T14:16:04.031Z,20.73
2019-04-21T14:18:32.859Z,20.85
2019-04-21T14:21:03.092Z,20.98
2019-04-21T14:23:38.124Z,21.00
2019-04-21T14:26:01.843Z,20.84
2019-04-21T14:28:30.379Z,20.96
2019-04-21T14:30:58.823Z,21.06
2019-04-21T14:33:27.914Z,21.14
2019-04-21T14:35:56.841Z,21.31
2019-04-21T14:38:26.790Z,21.16
2019-04-21T14:40:56.497Z,20.94
2019-04-21T14:43:25.950Z,21.12
2019-04-21T14:46:02.980Z,21.01
2019-04-21T14:48:50.796Z,21.06
2019-04-21T14:51:38.943Z,20.96
2019-04-21T14:54:11.977Z,21.08
2019-04-21T14:56:43.100Z,20.99
2019-04-21T14:59:12.954Z,20.88
2019-04-21T15:01:41.945Z,21.01
2019-04-21T15:04:10.544Z,20.93
2019-04-21T15:06:39.398Z,20.81
2019-04-21T15:09:11.180Z,21.05
2019-04-21T15:11:40.191Z,21.13
2019-04-21T15:14:11.680Z,21.06
2019-04-21T15:16:40.876Z,21.14
2019-04-21T15:19:10.723Z,21.18
2019-04-21T15:21:40.431Z,21.20
2019-04-21T15:24:08.965Z,21.24
2019-04-21T15:26:38.028Z,21.06
2019-04-21T15:29:06.769Z,21.00
2019-04-21T15:31:38.137Z,20.73
2019-04-21T15:34:08.654Z,20.63
2019-04-21T15:36:37.839Z,20.57
2019-04-21T15:39:09.855Z,20.66
2019-04-21T15:41:38.612Z,20.69
2019-04-21T15:44:08.267Z,20.64
2019-04-21T15:46:37.637Z,20.55
2019-04-21T15:49:06.992Z,20.50
2019-04-21T15:51:35.824Z,20.49
2019-04-21T15:54:04.984Z,20.48
2019-04-21T15:56:38.519Z,20.35
2019-04-21T15:59:08.682Z,20.35
2019-04-21T16:01:39.002Z,20.29
2019-04-21T16:04:08.019Z,20.31
2019-04-21T16:06:37.350Z,20.21
2019-04-21T16:09:08.557Z,20.14
2019-04-21T16:11:37.874Z,20.28
2019-04-21T16:14:08.040Z,20.30
2019-04-21T16:16:36.707Z,20.28
2019-04-21T16:19:06.157Z,20.15
2019-04-21T16:21:37.097Z,20.25
2019-04-21T16:24:04.835Z,20.10
2019-04-21T16:26:34.873Z,20.04
2019-04-21T16:29:04.906Z,19.95
2019-04-21T16:31:34.298Z,19.84
2019-04-21T16:34:03.209Z,19.83
2019-04-21T16:36:31.908Z,19.97
2019-04-21T16:39:01.761Z,20.03
2019-04-21T16:41:30.326Z,19.97
2019-04-21T16:43:58.886Z,19.97
2019-04-21T16:46:27.594Z,19.99
2019-04-21T16:48:56.030Z,19.90
2019-04-21T16:51:24.523Z,19.86
2019-04-21T16:53:55.690Z,19.97
2019-04-21T16:56:29.125Z,19.86
2019-04-21T16:59:06.386Z,19.92
2019-04-21T17:01:36.347Z,19.94
2019-04-21T17:04:06.517Z,19.92
2019-04-21T17:06:35.388Z,19.84
2019-04-21T17:09:05.475Z,19.69
2019-04-21T17:11:37.180Z,19.77
2019-04-21T17:14:05.862Z,19.72
2019-04-21T17:16:55.170Z,19.59
2019-04-21T17:19:14.560Z,19.54
2019-04-21T17:21:37.584Z,19.47
2019-04-21T17:24:08.301Z,19.50
2019-04-21T17:26:39.319Z,19.34
2019-04-21T17:29:07.168Z,19.22
2019-04-21T17:31:37.074Z,19.21
2019-04-21T17:34:11.892Z,19.30
2019-04-21T17:36:37.137Z,19.11
2019-04-21T17:39:06.992Z,18.98
2019-04-21T17:41:43.428Z,19.05
2019-04-21T17:44:06.677Z,19.07
2019-04-21T17:46:44.097Z,18.95
2019-04-21T17:49:05.641Z,18.94
2019-04-21T17:51:40.619Z,18.75
2019-04-21T17:54:17.408Z,18.84
2019-04-21T17:57:07.530Z,18.82
2019-04-21T17:59:47.607Z,18.60
2019-04-21T18:02:02.236Z,18.51
2019-04-21T18:04:30.675Z,18.48
2019-04-21T18:07:26.278Z,18.46
2019-04-21T18:10:00.986Z,18.23
2019-04-21T18:12:25.022Z,18.20
2019-04-21T18:14:55.514Z,18.08
2019-04-21T18:17:11.501Z,17.96
2019-04-21T18:19:43.593Z,17.88
2019-04-21T18:22:12.801Z,17.87
2019-04-21T18:24:55.083Z,18.06
2019-04-21T18:27:17.447Z,17.94
2019-04-21T18:29:46.516Z,18.10
2019-04-21T18:32:17.555Z,17.97
2019-04-21T18:35:07.032Z,17.88
2019-04-21T18:37:41.766Z,17.90
2019-04-21T18:40:12.341Z,17.84
2019-04-21T18:43:04.434Z,17.64
2019-04-21T18:48:06.694Z,17.50
2019-04-21T18:50:48.912Z,17.37
2019-04-21T18:53:44.773Z,17.32
2019-04-21T18:56:05.691Z,17.36
2019-04-21T18:58:32.554Z,17.32
2019-04-21T19:01:07.326Z,17.33
2019-04-21T19:03:38.875Z,17.20
2019-04-21T19:06:08.991Z,17.09
2019-04-21T19:08:56.141Z,17.10
2019-04-21T19:14:32.966Z,16.99
2019-04-21T19:19:36.544Z,16.91
2019-04-21T19:21:32.896Z,16.97
2019-04-21T19:24:18.189Z,16.77
2019-04-21T19:26:46.786Z,16.68
2019-04-21T19:29:22.808Z,16.72
2019-04-21T19:31:44.364Z,16.63
2019-04-21T19:34:03.542Z,16.63
2019-04-21T19:36:23.766Z,16.68
2019-04-21T19:39:03.692Z,16.57
2019-04-21T19:41:35.632Z,16.50
2019-04-21T19:44:14.197Z,16.48
2019-04-21T19:46:38.047Z,16.39
2019-04-21T19:49:17.234Z,16.22
2019-04-21T19:51:36.284Z,16.29
2019-04-21T19:54:01.468Z,16.42
2019-04-21T19:56:24.120Z,16.34
2019-04-21T19:58:52.974Z,16.18
2019-04-21T20:01:21.527Z,16.19
2019-04-21T20:03:55.367Z,16.24
2019-04-21T20:06:36.141Z,16.21
2019-04-21T20:09:12.198Z,16.04
2019-04-21T20:11:38.717Z,15.98
2019-04-21T20:14:41.811Z,15.92
2019-04-21T20:16:41.733Z,15.82
2019-04-21T20:18:58.567Z,15.77
2019-04-21T20:21:22.814Z,15.77
2019-04-21T20:23:51.723Z,15.85
2019-04-21T20:26:23.123Z,15.83
2019-04-21T20:29:01.070Z,15.71
2019-04-21T20:31:37.369Z,15.73
2019-04-21T20:34:11.320Z,15.74
2019-04-21T20:36:41.898Z,15.61
2019-04-21T20:38:58.029Z,15.51
2019-04-21T20:41:38.234Z,15.47
2019-04-21T20:44:11.977Z,15.40
2019-04-21T20:46:39.869Z,15.42
2019-04-21T20:49:04.576Z,15.40
2019-04-21T20:51:37.965Z,15.38
2019-04-21T20:54:07.373Z,15.31
2019-04-21T20:56:42.028Z,15.34
2019-04-21T20:59:08.063Z,15.34
2019-04-21T21:01:39.319Z,15.21
2019-04-21T21:04:06.359Z,15.17
2019-04-21T21:06:38.525Z,15.18
2019-04-21T21:09:12.174Z,15.19
2019-04-21T21:11:46.161Z,15.08
2019-04-21T21:14:11.827Z,15.13
2019-04-21T21:16:46.199Z,15.01
2019-04-21T21:19:25.907Z,15.01
2019-04-21T21:21:40.003Z,15.04
2019-04-21T21:24:10.213Z,14.88
2019-04-21T21:26:43.984Z,14.90
2019-04-21T21:29:06.842Z,14.93
2019-04-21T21:31:41.489Z,14.84
2019-04-21T21:34:19.205Z,14.68
2019-04-21T21:36:43.155Z,14.56
2019-04-21T21:39:15.481Z,14.60
2019-04-21T21:41:33.678Z,14.46
2019-04-21T21:44:05.332Z,14.47
2019-04-21T21:46:41.046Z,14.28
2019-04-21T21:49:07.614Z,14.25
2019-04-21T21:51:39.795Z,14.27
2019-04-21T21:53:58.891Z,14.20
2019-04-21T21:56:28.772Z,14.15
2019-04-21T21:59:01.162Z,14.21
2019-04-21T22:01:32.007Z,14.21
2019-04-21T22:04:04.881Z,14.06
2019-04-21T22:06:39.962Z,14.01
2019-04-21T22:08:58.597Z,14.03
2019-04-21T22:11:27.164Z,13.86
2019-04-21T22:14:02.782Z,13.94
2019-04-21T22:16:46.637Z,13.77
2019-04-21T22:19:16.848Z,13.67
2019-04-21T22:21:51.953Z,13.63
2019-04-21T22:24:08.495Z,13.68
2019-04-21T22:26:29.651Z,13.65
2019-04-21T22:28:58.229Z,13.61
2019-04-21T22:31:31.871Z,13.51
2019-04-21T22:34:02.236Z,13.43
2019-04-21T22:36:42.674Z,13.45
2019-04-21T22:39:13.341Z,13.33
2019-04-21T22:41:35.558Z,13.30
2019-04-21T22:43:59.379Z,13.26
2019-04-21T22:46:28.562Z,13.28
2019-04-21T22:49:03.712Z,13.16
2019-04-21T22:51:37.082Z,13.22
2019-04-21T22:54:01.039Z,13.23
2019-04-21T22:56:32.032Z,13.18
2019-04-21T22:59:04.232Z,13.17
2019-04-21T23:01:35.370Z,13.19
2019-04-21T23:04:02.799Z,13.11
2019-04-21T23:06:33.735Z,12.94
2019-04-21T23:09:01.171Z,12.92
2019-04-21T23:11:35.868Z,12.82
2019-04-21T23:14:04.374Z,12.75
2019-04-21T23:16:35.600Z,12.75
2019-04-21T23:19:21.125Z,12.67
2019-04-21T23:21:55.475Z,12.62
2019-04-21T23:24:26.517Z,12.50
2019-04-21T23:26:44.882Z,12.59
2019-04-21T23:29:20.962Z,12.61
2019-04-21T23:31:51.736Z,12.61
2019-04-21T23:34:02.353Z,12.67
2019-04-21T23:36:33.400Z,12.46
2019-04-21T23:39:01.396Z,12.41
2019-04-21T23:41:39.034Z,12.24
2019-04-21T23:44:05.878Z,12.24
2019-04-21T23:46:35.012Z,12.32
2019-04-21T23:49:16.320Z,12.32
2019-04-21T23:51:42.053Z,12.48
2019-04-21T23:54:01.770Z,12.29
2019-04-21T23:56:35.827Z,12.29
2019-04-21T23:59:05.088Z,12.31
